Terminal Aerodrome Forecast
Issued by NWS Duluth, MN

Current Version | Previous Version | Text Only | Print | Product List | Glossary On
Versions: 1 2 3 4 5 6 7 8 9 10 11 12 13 14 15 16 17 18 19 20 21 22 23 24 25 26 27 28 29
000
FTUS43 KDLH 291000 AAB
TAFDLH
TAF AMD
KDLH 291001Z 2910/3006 18004KT 6SM BR FEW002 SCT120 WS020/21025KT
     FM291200 18003KT 2SM BR SCT002 SCT120 WS020/21035KT
     FM291400 23005KT P6SM SCT120
     FM291600 30007KT 6SM -SHRA BR BKN025 OVC035
     FM292000 34012G19KT P6SM -SHRA BKN035 OVC050
     FM300000 35011KT P6SM FEW050=

USA.gov is the U.S. government's official web portal to all federal, state and local government web resources and services.